Terminal Aerodrome Forecast
Issued by NWS

Home | Current Version | Previous Version | Graphics & Text | Print | Product List | Glossary On
Versions: 1 2 3 4 5 6 7 8 9 10 11 12 13 14
000
FTUS43 KGRB 101100
TAFAUW
TAF
KAUW 101126Z 1012/1112 VRB03KT P6SM SKC
     FM101500 17008KT P6SM SCT045
     FM110300 15006KT P6SM SCT100 BKN200 PROB30 1111/1112 5SM -SHRA
      BKN060=

USA.gov is the U.S. government's official web portal to all federal, state and local government web resources and services.